Time;durP1;ratioP1;P1;durP2;ratioP2;P2;SDS_P1;SDS_P2;PMS_P1;PMS_P2;Temp;Humidity;BMP_temperature;BMP_pressure;BME280_temperature;BME280_humidity;BME280_pressure;Samples;Min_cycle;Max_cycle;Signal;HPM_P1;HPM_P2
2022/08/13 00:00:00;;;;;;;6.43;2.30;;;;;;;14.19;100.00;95830.59;1029592;28;20357;-73
2022/08/13 00:00:32;;;;;;;1.80;1.70;;;;;;;14.19;100.00;95835.88;1026025;28;20066;-71
2022/08/13 00:01:04;;;;;;;3.00;1.73;;;;;;;14.20;100.00;95832.16;1030336;28;20034;-72
2022/08/13 00:01:40;;;;;;;5.63;2.28;;;;;;;14.20;100.00;95836.66;1030380;28;20034;-72
2022/08/13 00:02:14;;;;;;;4.03;2.50;;;;;;;14.19;100.00;95835.88;1026743;28;20122;-71
2022/08/13 00:02:45;;;;;;;3.00;2.55;;;;;;;14.14;100.00;95831.41;1028262;28;20035;-72
2022/08/13 00:03:18;;;;;;;3.38;2.00;;;;;;;14.17;100.00;95835.34;1030549;28;20065;-72
2022/08/13 00:03:53;;;;;;;2.60;2.05;;;;;;;14.17;100.00;95834.56;1032054;28;20528;-72
2022/08/13 00:04:26;;;;;;;3.45;2.17;;;;;;;14.18;100.00;95834.28;1030723;28;20830;-71
2022/08/13 00:04:59;;;;;;;2.80;2.30;;;;;;;14.12;100.00;95828.28;1030508;28;20096;-72
2022/08/13 00:05:30;;;;;;;2.85;2.10;;;;;;;14.13;100.00;95834.34;1029554;28;20065;-71
2022/08/13 00:06:02;;;;;;;3.10;2.25;;;;;;;14.13;100.00;95829.06;1028419;28;20098;-73
2022/08/13 00:07:08;;;;;;;3.10;1.77;;;;;;;14.12;100.00;95832.78;1034012;28;20145;-71
2022/08/13 00:07:39;;;;;;;3.72;2.30;;;;;;;14.10;100.00;95834.91;1029680;28;20038;-72
2022/08/13 00:08:09;;;;;;;5.10;2.20;;;;;;;14.11;100.00;95833.84;1028175;28;20511;-72
2022/08/13 00:08:40;;;;;;;2.40;2.20;;;;;;;14.11;100.00;95831.19;1027303;28;20704;-72
2022/08/13 00:09:12;;;;;;;2.88;2.10;;;;;;;14.11;100.00;95834.63;1025712;28;20058;-72
2022/08/13 00:09:42;;;;;;;2.70;1.77;;;;;;;14.12;100.00;95835.44;1022645;28;20640;-72
2022/08/13 00:10:28;;;;;;;4.20;2.25;;;;;;;13.94;100.00;95804.50;1024351;28;20026;-71
2022/08/13 00:10:58;;;;;;;9.57;2.70;;;;;;;14.09;100.00;95828.84;1026597;28;20066;-71
2022/08/13 00:13:14;;;;;;;6.68;2.10;;;;;;;14.06;100.00;95831.28;1030353;28;20091;-72
2022/08/13 00:13:45;;;;;;;3.22;2.28;;;;;;;14.05;100.00;95827.03;1030714;28;20015;-72
2022/08/13 00:14:16;;;;;;;3.17;2.03;;;;;;;14.05;100.00;95827.03;1025510;28;20039;-72
2022/08/13 00:14:46;;;;;;;3.38;2.13;;;;;;;14.00;100.00;95827.13;1021883;29;20443;-72
2022/08/13 00:15:27;;;;;;;9.35;2.45;;;;;;;14.01;100.00;95823.41;1024900;28;20066;-71
2022/08/13 00:15:59;;;;;;;2.50;2.20;;;;;;;14.01;100.00;95831.31;1026549;28;20033;-71
2022/08/13 00:16:31;;;;;;;2.10;1.90;;;;;;;14.00;100.00;95830.53;1028418;28;20031;-71
2022/08/13 00:17:04;;;;;;;2.30;2.10;;;;;;;13.99;100.00;95825.56;1026393;28;20027;-71
2022/08/13 00:17:34;;;;;;;2.95;2.10;;;;;;;13.97;100.00;95820.53;1026586;28;20027;-71
2022/08/13 00:18:07;;;;;;;2.15;1.95;;;;;;;13.94;100.00;95821.09;1027355;28;20027;-72
2022/08/13 00:18:38;;;;;;;4.50;2.30;;;;;;;13.96;100.00;95828.75;1033948;28;20014;-71
2022/08/13 00:19:08;;;;;;;3.78;2.03;;;;;;;13.95;100.00;95825.34;1029912;28;20057;-72
2022/08/13 00:19:40;;;;;;;6.15;2.08;;;;;;;13.90;100.00;95820.09;1026594;28;20081;-71
2022/08/13 00:20:11;;;;;;;2.85;2.22;;;;;;;13.89;100.00;95816.69;1018185;29;20020;-71
2022/08/13 00:20:44;;;;;;;6.95;2.40;;;;;;;13.89;100.00;95818.53;1013563;29;20020;-72
2022/08/13 00:21:14;;;;;;;6.82;2.13;;;;;;;13.93;100.00;95829.31;1010228;29;20037;-72
2022/08/13 00:21:47;;;;;;;2.70;2.10;;;;;;;13.94;100.00;95825.59;1011291;29;20060;-72
2022/08/13 00:22:19;;;;;;;4.57;1.80;;;;;;;13.88;100.00;95815.13;1016162;29;20027;-72
2022/08/13 00:22:49;;;;;;;2.70;1.98;;;;;;;13.88;100.00;95812.47;1019464;29;20034;-71
2022/08/13 00:23:21;;;;;;;5.53;2.00;;;;;;;13.94;100.00;95828.25;1023092;28;20061;-72
2022/08/13 00:23:54;;;;;;;5.47;2.00;;;;;;;13.91;100.00;95817.16;1019186;29;20176;-70
2022/08/13 00:24:25;;;;;;;3.60;1.92;;;;;;;13.94;100.00;95825.59;1021959;29;20149;-71
2022/08/13 00:24:56;;;;;;;11.85;2.65;;;;;;;13.91;100.00;95830.34;1014704;29;20107;-72
2022/08/13 00:25:26;;;;;;;2.30;1.75;;;;;;;13.87;100.00;95824.06;1011724;29;20039;-71
2022/08/13 00:25:57;;;;;;;2.10;1.90;;;;;;;13.88;100.00;95824.88;1014856;29;20406;-71
2022/08/13 00:26:33;;;;;;;3.35;1.80;;;;;;;13.86;100.00;95824.38;1026645;28;20031;-70
2022/08/13 00:27:06;;;;;;;3.10;1.75;;;;;;;13.89;100.00;95829.88;1018739;29;20027;-71
2022/08/13 00:27:37;;;;;;;4.75;1.98;;;;;;;13.89;100.00;95835.16;1010939;29;20024;-69
2022/08/13 00:28:07;;;;;;;3.33;2.28;;;;;;;13.86;100.00;95829.66;1016439;29;20500;-71
2022/08/13 00:28:38;;;;;;;4.50;2.00;;;;;;;13.86;100.00;95830.44;1019129;29;20189;-70
2022/08/13 00:29:10;;;;;;;4.35;2.10;;;;;;;13.84;100.00;95832.56;1018526;29;20510;-71
2022/08/13 00:29:40;;;;;;;3.20;2.10;;;;;;;13.83;100.00;95831.00;1018699;29;20036;-69
2022/08/13 00:30:14;;;;;;;4.18;2.15;;;;;;;13.83;100.00;95832.84;1022672;28;20575;-69
2022/08/13 00:30:46;;;;;;;3.20;2.25;;;;;;;13.82;100.00;95837.34;1023150;28;20126;-70
2022/08/13 00:31:17;;;;;;;2.25;1.90;;;;;;;13.81;100.00;95834.97;1025852;28;20023;-70
2022/08/13 00:31:49;;;;;;;5.47;2.28;;;;;;;13.80;100.00;95830.75;1025570;28;20031;-72
2022/08/13 00:32:21;;;;;;;3.47;2.00;;;;;;;13.80;100.00;95833.41;1022819;28;20581;-69
2022/08/13 00:32:52;;;;;;;3.63;2.10;;;;;;;13.78;100.00;95823.16;1027577;28;20117;-71
2022/08/13 00:33:23;;;;;;;2.55;1.70;;;;;;;13.74;100.00;95824.75;1034740;28;20060;-69
2022/08/13 00:33:54;;;;;;;5.05;2.05;;;;;;;13.77;100.00;95826.03;1026531;28;20035;-70
2022/08/13 00:34:27;;;;;;;4.60;2.10;;;;;;;13.77;100.00;95826.81;1026574;28;20084;-71
2022/08/13 00:34:58;;;;;;;5.03;1.92;;;;;;;13.60;100.00;95802.75;1022565;28;20027;-70
2022/08/13 00:35:29;;;;;;;2.22;1.90;;;;;;;13.75;100.00;95823.72;1024288;28;20069;-70
2022/08/13 00:35:59;;;;;;;2.53;2.30;;;;;;;13.66;100.00;95814.81;1026133;28;20093;-71
2022/08/13 00:36:32;;;;;;;3.35;2.58;;;;;;;13.70;100.00;95821.09;1026703;28;20410;-72
2022/08/13 00:37:02;;;;;;;3.15;2.30;;;;;;;13.71;100.00;95821.88;1026569;28;20031;-72
2022/08/13 00:37:33;;;;;;;4.88;2.30;;;;;;;13.68;100.00;95817.94;1026158;28;20058;-73
2022/08/13 00:38:06;;;;;;;3.45;2.28;;;;;;;13.68;100.00;95825.88;1030730;28;20053;-72
2022/08/13 00:38:37;;;;;;;3.22;1.90;;;;;;;13.66;100.00;95826.16;1023177;28;20206;-73
2022/08/13 00:39:08;;;;;;;3.15;1.88;;;;;;;13.62;100.00;95825.16;1026468;28;20031;-72
2022/08/13 00:39:39;;;;;;;14.05;3.20;;;;;;;13.64;100.00;95824.84;1019958;29;20019;-70
2022/08/13 00:40:10;;;;;;;18.63;3.85;;;;;;;13.61;100.00;95814.88;1017901;28;20024;-72
2022/08/13 00:40:48;;;;;;;9.27;2.75;;;;;;;13.62;100.00;95819.09;1019144;29;20496;-72
2022/08/13 00:41:37;;;;;;;7.55;2.53;;;;;;;13.59;100.00;95822.28;1020031;28;20039;-72
2022/08/13 00:42:08;;;;;;;7.80;2.65;;;;;;;13.58;100.00;95818.88;1020796;28;20406;-70
2022/08/13 00:42:38;;;;;;;4.93;2.40;;;;;;;13.55;100.00;95823.91;1028272;28;20065;-72
2022/08/13 00:43:10;;;;;;;9.77;2.28;;;;;;;13.49;100.00;95806.56;1022142;28;20417;-72
2022/08/13 00:43:40;;;;;;;2.80;2.25;;;;;;;13.54;100.00;95817.84;1021658;28;20075;-70
2022/08/13 00:44:13;;;;;;;6.20;2.08;;;;;;;13.47;100.00;95811.31;1020956;28;20078;-70
2022/08/13 00:44:44;;;;;;;2.95;2.08;;;;;;;13.50;100.00;95823.94;1026343;28;20540;-70
2022/08/13 00:45:14;;;;;;;2.30;1.88;;;;;;;13.48;100.00;95820.78;1022800;28;20027;-71
2022/08/13 00:45:45;;;;;;;2.78;2.17;;;;;;;13.44;100.00;95816.06;1020751;28;20454;-71
2022/08/13 00:46:15;;;;;;;3.22;2.10;;;;;;;13.41;100.00;95818.47;1012854;29;20165;-72
2022/08/13 00:46:46;;;;;;;3.45;2.17;;;;;;;13.43;100.00;95819.78;1024464;28;20843;-73
2022/08/13 00:49:03;;;;;;;3.80;2.10;;;;;;;13.40;100.00;95816.91;1026305;28;20824;-72
2022/08/13 00:49:34;;;;;;;2.67;2.15;;;;;;;13.37;100.00;95815.63;1027462;28;20031;-70
2022/08/13 00:50:05;;;;;;;5.75;2.17;;;;;;;13.31;100.00;95808.84;1025636;28;20441;-71
2022/08/13 00:50:35;;;;;;;4.70;1.80;;;;;;;13.35;100.00;95811.72;1015664;29;20036;-72
2022/08/13 00:51:08;;;;;;;5.68;2.22;;;;;;;13.32;100.00;95809.63;1017627;29;20111;-71
2022/08/13 00:51:38;;;;;;;5.47;2.08;;;;;;;13.34;100.00;95813.53;1018351;29;20075;-72
2022/08/13 00:52:10;;;;;;;3.97;1.77;;;;;;;13.32;100.00;95822.81;1022299;28;20489;-72
2022/08/13 00:52:41;;;;;;;4.25;2.00;;;;;;;13.30;100.00;95817.00;1022994;28;20520;-70
2022/08/13 00:53:18;;;;;;;7.32;2.47;;;;;;;13.31;100.00;95819.38;1018662;29;20030;-72
2022/08/13 00:53:48;;;;;;;4.55;2.58;;;;;;;13.28;100.00;95814.66;1022005;28;20020;-71
2022/08/13 00:54:19;;;;;;;3.22;2.22;;;;;;;13.26;100.00;95813.38;1026562;28;20109;-72
2022/08/13 00:54:50;;;;;;;6.50;2.20;;;;;;;13.25;100.00;95815.22;1021630;28;20058;-73
2022/08/13 00:55:23;;;;;;;2.30;2.10;;;;;;;13.24;100.00;95818.09;1022476;28;20030;-73
2022/08/13 00:55:56;;;;;;;4.60;1.90;;;;;;;13.20;100.00;95820.50;1019197;29;20083;-72
2022/08/13 00:56:26;;;;;;;2.10;1.77;;;;;;;13.18;100.00;95804.97;1020014;28;20036;-70
2022/08/13 00:56:57;;;;;;;8.35;2.70;;;;;;;13.23;100.00;95822.56;1021646;28;20517;-70
2022/08/13 00:57:31;;;;;;;7.03;2.42;;;;;;;13.22;100.00;95818.38;1018981;29;20047;-72
2022/08/13 00:58:01;;;;;;;2.65;1.80;;;;;;;13.20;100.00;95818.63;1020254;28;20050;-73
2022/08/13 00:58:33;;;;;;;3.78;2.05;;;;;;;13.13;100.00;95806.84;1021662;28;20031;-72
2022/08/13 00:59:10;;;;;;;8.10;2.40;;;;;;;13.19;100.00;95816.28;1017647;28;20035;-72
2022/08/13 00:59:41;;;;;;;15.15;3.00;;;;;;;13.19;100.00;95821.56;1022453;28;20038;-71
2022/08/13 01:00:19;;;;;;;5.15;2.40;;;;;;;13.19;100.00;95816.28;1025191;28;20042;-71
2022/08/13 01:00:52;;;;;;;8.27;2.50;;;;;;;13.15;100.00;95810.00;1025959;28;20030;-71
2022/08/13 01:01:24;;;;;;;5.22;2.10;;;;;;;13.16;100.00;95814.22;1020002;28;20095;-72
2022/08/13 01:01:55;;;;;;;3.72;2.50;;;;;;;13.09;100.00;95805.84;1018137;29;20035;-73
2022/08/13 01:02:26;;;;;;;3.92;2.20;;;;;;;13.08;100.00;95804.28;1026092;28;20035;-72
2022/08/13 01:02:56;;;;;;;2.05;1.88;;;;;;;13.08;100.00;95806.91;1021931;29;20027;-72
2022/08/13 01:03:29;;;;;;;5.97;2.60;;;;;;;13.07;100.00;95810.59;1025661;28;20027;-72
2022/08/13 01:04:02;;;;;;;7.68;2.78;;;;;;;13.12;100.00;95815.84;1026338;28;20034;-72
2022/08/13 01:04:32;;;;;;;8.82;2.63;;;;;;;13.11;100.00;95815.06;1027208;28;20551;-72
2022/08/13 01:05:03;;;;;;;4.68;2.10;;;;;;;13.12;100.00;95810.56;1025706;28;20130;-71
2022/08/13 01:05:34;;;;;;;1.92;1.80;;;;;;;13.06;100.00;95806.41;1029781;28;20073;-72
2022/08/13 01:06:05;;;;;;;4.35;2.30;;;;;;;13.12;100.00;95813.19;1030949;28;20121;-71
2022/08/13 01:06:36;;;;;;;7.28;2.33;;;;;;;13.13;100.00;95815.53;1027531;28;20024;-71
2022/08/13 01:07:06;;;;;;;2.60;2.20;;;;;;;13.08;100.00;95804.28;1017125;28;20042;-71
2022/08/13 01:07:37;;;;;;;6.38;2.05;;;;;;;13.14;100.00;95816.31;1023494;28;20031;-71
2022/08/13 01:08:08;;;;;;;4.22;2.10;;;;;;;13.14;100.00;95813.69;1025580;28;20096;-72
2022/08/13 01:08:41;;;;;;;10.70;2.42;;;;;;;13.17;100.00;95807.88;1025318;28;21004;-72
2022/08/13 01:09:13;;;;;;;3.10;1.90;;;;;;;13.16;100.00;95807.09;1030285;28;20030;-72
2022/08/13 01:09:45;;;;;;;5.80;2.17;;;;;;;13.18;100.00;95812.09;1027826;28;20060;-72
2022/08/13 01:10:15;;;;;;;2.28;1.75;;;;;;;13.13;100.00;95805.00;1030460;28;20428;-72
2022/08/13 01:10:48;;;;;;;5.47;2.53;;;;;;;13.21;100.00;95819.41;1029567;28;20030;-71
2022/08/13 01:11:18;;;;;;;2.30;2.03;;;;;;;13.21;100.00;95807.06;1033755;28;20064;-71
2022/08/13 01:11:49;;;;;;;7.72;2.17;;;;;;;13.26;100.00;95816.78;1027993;28;20772;-71
2022/08/13 01:12:20;;;;;;;5.97;2.55;;;;;;;13.26;100.00;95806.25;1026266;28;20030;-72
2022/08/13 01:12:50;;;;;;;2.67;2.15;;;;;;;13.29;100.00;95808.31;1026624;28;20079;-72
2022/08/13 01:13:25;;;;;;;2.28;2.00;;;;;;;13.32;100.00;95804.34;1028442;28;20527;-72
2022/08/13 01:13:58;;;;;;;3.63;2.00;;;;;;;13.30;100.00;95807.25;1021050;29;20035;-72
2022/08/13 01:14:32;;;;;;;2.58;1.90;;;;;;;13.33;100.00;95806.69;1020771;29;20058;-72
2022/08/13 01:15:03;;;;;;;4.40;2.20;;;;;;;13.30;100.00;95798.56;1020685;28;20039;-72
2022/08/13 01:15:34;;;;;;;4.55;2.03;;;;;;;13.33;100.00;95804.06;1025468;28;20064;-72
2022/08/13 01:16:13;;;;;;;1.88;1.75;;;;;;;13.31;100.00;95798.31;1021734;29;20035;-72
2022/08/13 01:16:43;;;;;;;6.10;2.08;;;;;;;13.33;100.00;95801.44;1012853;29;20451;-72
2022/08/13 01:17:22;;;;;;;2.30;2.00;;;;;;;13.34;100.00;95807.47;1022223;29;20759;-73
2022/08/13 01:17:53;;;;;;;2.03;1.83;;;;;;;13.24;100.00;95797.81;1020091;28;20035;-72
2022/08/13 01:18:24;;;;;;;2.05;1.85;;;;;;;13.32;100.00;95807.78;1023316;28;20082;-73
2022/08/13 01:18:55;;;;;;;6.43;2.58;;;;;;;13.31;100.00;95811.47;1028854;28;20061;-72
2022/08/13 01:19:25;;;;;;;6.43;1.88;;;;;;;13.31;100.00;95806.22;1024666;28;20508;-73
2022/08/13 01:19:56;;;;;;;3.90;2.05;;;;;;;13.31;100.00;95808.84;1023630;28;20070;-72
2022/08/13 01:20:27;;;;;;;2.67;2.08;;;;;;;13.28;100.00;95804.13;1021070;29;20497;-74
2022/08/13 01:21:08;;;;;;;3.00;1.83;;;;;;;13.29;100.00;95800.41;1014758;29;20414;-72
2022/08/13 01:21:39;;;;;;;2.95;2.08;;;;;;;13.29;100.00;95800.41;1016737;28;20036;-71
2022/08/13 01:22:09;;;;;;;4.80;1.98;;;;;;;13.30;100.00;95806.47;1022461;29;20089;-72
2022/08/13 01:22:41;;;;;;;2.55;2.15;;;;;;;13.29;100.00;95797.78;1020140;29;20067;-72
2022/08/13 01:23:14;;;;;;;2.42;1.90;;;;;;;13.25;100.00;95796.78;1018519;29;20082;-72
2022/08/13 01:23:46;;;;;;;4.25;2.08;;;;;;;13.30;100.00;95806.47;1026199;28;20066;-73
2022/08/13 01:24:17;;;;;;;1.88;1.60;;;;;;;13.31;100.00;95808.84;1028858;28;20243;-73
2022/08/13 01:24:50;;;;;;;3.47;2.08;;;;;;;13.28;100.00;95804.13;1030612;28;20018;-72
2022/08/13 01:25:21;;;;;;;4.18;2.45;;;;;;;13.29;100.00;95800.41;1030363;28;20105;-72
2022/08/13 01:25:54;;;;;;;3.95;2.10;;;;;;;13.28;100.00;95804.13;1027855;28;20389;-72
2022/08/13 01:26:27;;;;;;;2.40;2.20;;;;;;;13.29;100.00;95805.69;1034531;28;20053;-71
2022/08/13 01:27:00;;;;;;;4.10;2.38;;;;;;;13.28;100.00;95804.13;1026337;28;20408;-73
2022/08/13 01:27:31;;;;;;;2.40;2.10;;;;;;;13.27;100.00;95797.28;1022424;29;20023;-72
2022/08/13 01:28:01;;;;;;;2.00;1.90;;;;;;;13.28;100.00;95804.13;1012759;29;20020;-72
2022/08/13 01:28:32;;;;;;;2.38;1.90;;;;;;;13.27;100.00;95797.28;1014500;29;20048;-72
2022/08/13 01:29:04;;;;;;;3.72;2.30;;;;;;;13.28;100.00;95792.78;1020527;29;20103;-73
2022/08/13 01:29:35;;;;;;;2.78;2.10;;;;;;;13.22;100.00;95789.41;1026936;28;20561;-72
2022/08/13 01:30:08;;;;;;;2.20;2.00;;;;;;;13.27;100.00;95802.53;1030914;28;20034;-73
2022/08/13 01:30:40;;;;;;;4.22;1.90;;;;;;;13.20;100.00;95796.78;1029389;28;20634;-72
2022/08/13 01:31:14;;;;;;;3.65;2.42;;;;;;;13.26;100.00;95805.47;1025884;28;20451;-72
2022/08/13 01:31:44;;;;;;;2.38;2.10;;;;;;;13.20;100.00;95794.16;1022587;28;20033;-72
2022/08/13 01:32:15;;;;;;;8.98;2.50;;;;;;;13.24;100.00;95804.91;1024873;28;20890;-72
2022/08/13 01:32:46;;;;;;;6.78;2.50;;;;;;;13.23;100.00;95806.78;1022790;28;20536;-73
2022/08/13 01:33:17;;;;;;;19.27;3.47;;;;;;;13.21;100.00;95804.44;1022531;29;20031;-72
2022/08/13 01:33:49;;;;;;;4.82;2.65;;;;;;;13.23;100.00;95811.25;1023277;28;20046;-72
2022/08/13 01:34:20;;;;;;;3.65;2.42;;;;;;;13.20;100.00;95807.31;1027957;28;20136;-73
2022/08/13 01:34:50;;;;;;;3.25;2.53;;;;;;;13.20;100.00;95809.94;1022425;29;20031;-72
2022/08/13 01:35:21;;;;;;;13.15;2.83;;;;;;;13.19;100.00;95808.38;1022320;29;20624;-73
2022/08/13 01:35:53;;;;;;;18.58;3.53;;;;;;;13.20;100.00;95807.31;1017049;29;20032;-72
2022/08/13 01:36:24;;;;;;;3.53;2.20;;;;;;;13.19;100.00;95811.03;1022267;29;20027;-73
2022/08/13 01:36:54;;;;;;;8.38;2.60;;;;;;;13.19;100.00;95811.03;1026525;28;20043;-72
2022/08/13 01:37:24;;;;;;;6.13;2.28;;;;;;;13.17;100.00;95803.38;1028497;28;20192;-72
2022/08/13 01:37:57;;;;;;;2.83;2.35;;;;;;;13.15;100.00;95815.28;1026249;28;20065;-72
2022/08/13 01:38:27;;;;;;;2.95;2.40;;;;;;;13.16;100.00;95814.22;1022271;28;20676;-73
2022/08/13 01:39:05;;;;;;;3.63;2.55;;;;;;;13.15;100.00;95815.28;1026381;28;20018;-72
2022/08/13 01:39:36;;;;;;;2.30;2.10;;;;;;;13.09;100.00;95806.63;1026444;28;20042;-72
2022/08/13 01:40:07;;;;;;;5.68;2.80;;;;;;;13.11;100.00;95804.50;1031434;28;20029;-73
2022/08/13 01:40:38;;;;;;;3.05;2.42;;;;;;;13.14;100.00;95808.41;1030060;28;20281;-73
2022/08/13 01:41:08;;;;;;;3.10;2.50;;;;;;;13.09;100.00;95804.00;1025718;28;20035;-73
2022/08/13 01:41:39;;;;;;;3.10;2.50;;;;;;;13.10;100.00;95804.78;1022176;28;20031;-73
2022/08/13 01:42:20;;;;;;;11.45;4.18;;;;;;;13.12;100.00;95805.28;1022319;28;20395;-72
2022/08/13 01:42:50;;;;;;;3.30;2.45;;;;;;;13.10;100.00;95807.41;1027834;28;20400;-73
2022/08/13 01:43:21;;;;;;;4.20;2.80;;;;;;;13.08;100.00;95806.91;1021022;29;20042;-72
2022/08/13 01:43:51;;;;;;;3.60;2.70;;;;;;;13.09;100.00;95808.47;1022627;28;20034;-72
2022/08/13 01:44:24;;;;;;;2.92;2.63;;;;;;;13.08;100.00;95805.06;1028969;28;20542;-72
2022/08/13 01:44:54;;;;;;;3.88;2.80;;;;;;;13.05;100.00;95810.09;1023106;28;20493;-72
2022/08/13 01:45:25;;;;;;;4.75;2.75;;;;;;;13.06;100.00;95809.81;1026876;28;20058;-72
2022/08/13 01:45:58;;;;;;;3.10;2.50;;;;;;;13.06;100.00;95814.28;1026887;28;20510;-72
2022/08/13 01:50:28;;;;;;;3.55;2.65;;;;;;;13.06;100.00;95811.66;1022953;28;20509;-73
2022/08/13 01:50:36;;;;;;;2.83;2.53;;;;;;;12.97;100.00;95808.81;1025650;28;20125;-73
2022/08/13 01:51:08;;;;;;;2.60;2.40;;;;;;;12.96;100.00;95800.13;1028450;28;20483;-72
2022/08/13 01:51:41;;;;;;;6.38;2.58;;;;;;;12.96;100.00;95797.50;1030976;28;20681;-73
2022/08/13 01:52:12;;;;;;;5.88;2.90;;;;;;;12.94;100.00;95804.91;1031456;28;20034;-71
2022/08/13 01:52:42;;;;;;;4.53;2.83;;;;;;;12.95;100.00;95805.69;1032742;28;20030;-72
2022/08/13 01:53:14;;;;;;;6.50;2.65;;;;;;;12.88;100.00;95792.84;1030262;28;20766;-72
2022/08/13 01:53:46;;;;;;;5.53;2.63;;;;;;;12.92;100.00;95799.13;1026218;28;20023;-73
2022/08/13 01:54:17;;;;;;;2.90;2.50;;;;;;;12.91;100.00;95800.19;1023255;28;20027;-72
2022/08/13 01:54:48;;;;;;;3.33;2.55;;;;;;;12.86;100.00;95800.22;1022547;28;20031;-72
2022/08/13 01:55:19;;;;;;;6.05;2.72;;;;;;;12.90;100.00;95797.81;1026056;28;20035;-73
2022/08/13 01:55:54;;;;;;;5.70;2.85;;;;;;;12.89;100.00;95799.66;1022396;28;20117;-72
2022/08/13 01:56:26;;;;;;;4.70;2.75;;;;;;;12.90;100.00;95803.09;1030216;28;20057;-73
2022/08/13 01:56:59;;;;;;;6.95;2.65;;;;;;;12.83;100.00;95792.88;1029172;28;20080;-72
2022/08/13 01:57:33;;;;;;;4.07;2.90;;;;;;;12.85;100.00;95797.88;1027556;28;20097;-72
2022/08/13 01:58:07;;;;;;;3.80;2.50;;;;;;;12.84;100.00;95789.16;1029063;28;20459;-70
2022/08/13 01:58:39;;;;;;;2.70;2.50;;;;;;;12.88;100.00;95800.75;1026246;28;20456;-70
2022/08/13 01:59:09;;;;;;;5.15;2.55;;;;;;;12.88;100.00;95799.97;1024556;28;21056;-72
2022/08/13 01:59:41;;;;;;;2.80;2.60;;;;;;;12.89;100.00;95801.53;1028019;28;20038;-71
2022/08/13 02:00:13;;;;;;;3.10;2.63;;;;;;;12.89;100.00;95796.25;1027455;28;20069;-71
2022/08/13 02:00:44;;;;;;;2.75;2.40;;;;;;;12.83;100.00;95794.72;1030293;28;20026;-73
2022/08/13 02:01:15;;;;;;;5.70;3.13;;;;;;;12.83;100.00;95790.22;1025159;28;20066;-71
2022/08/13 02:01:46;;;;;;;4.10;2.72;;;;;;;12.85;100.00;95796.03;1022435;28;20589;-71
2022/08/13 02:02:16;;;;;;;6.13;2.50;;;;;;;12.80;100.00;95796.03;1014357;29;20031;-72
2022/08/13 02:02:48;;;;;;;8.55;2.60;;;;;;;12.85;100.00;95800.50;1018359;29;20041;-73
2022/08/13 02:03:19;;;;;;;3.13;2.88;;;;;;;12.82;100.00;95796.56;1018115;29;20732;-74
2022/08/13 02:03:50;;;;;;;3.22;2.65;;;;;;;12.82;100.00;95796.56;1018235;29;20024;-73
2022/08/13 02:04:21;;;;;;;6.65;3.05;;;;;;;12.82;100.00;95803.69;1022390;28;20030;-72
2022/08/13 02:04:52;;;;;;;3.78;2.50;;;;;;;12.82;100.00;95811.59;1020015;28;20027;-72
2022/08/13 02:05:24;;;;;;;9.00;3.20;;;;;;;12.80;100.00;95803.94;1018459;29;20502;-73
2022/08/13 02:05:56;;;;;;;7.90;2.95;;;;;;;12.81;100.00;95808.16;1026141;28;20014;-72
2022/08/13 02:06:28;;;;;;;5.15;2.40;;;;;;;12.80;100.00;95803.94;1024098;28;20074;-72
2022/08/13 02:07:00;;;;;;;6.35;2.70;;;;;;;12.78;100.00;95806.09;1018571;29;20038;-72
2022/08/13 02:07:30;;;;;;;4.30;2.47;;;;;;;12.70;100.00;95788.22;1018067;29;20050;-72
2022/08/13 02:08:01;;;;;;;2.67;2.40;;;;;;;12.78;100.00;95800.81;1020519;28;20020;-72
2022/08/13 02:08:34;;;;;;;3.60;2.80;;;;;;;12.78;100.00;95800.03;1022567;29;20031;-72
2022/08/13 02:09:04;;;;;;;3.40;2.47;;;;;;;12.77;100.00;95803.72;1018733;28;20068;-72
2022/08/13 02:09:35;;;;;;;6.15;2.70;;;;;;;12.77;100.00;95801.84;1018872;29;20063;-72
2022/08/13 02:10:05;;;;;;;4.57;2.60;;;;;;;12.71;100.00;95800.34;1014459;29;20107;-72
2022/08/13 02:10:40;;;;;;;6.13;3.45;;;;;;;12.76;100.00;95802.94;1018361;29;20122;-73
2022/08/13 02:11:10;;;;;;;8.40;2.92;;;;;;;12.76;100.00;95802.16;1019598;28;20032;-72
2022/08/13 02:11:41;;;;;;;3.17;2.60;;;;;;;12.74;100.00;95805.84;1028979;28;20054;-72
2022/08/13 02:12:13;;;;;;;4.45;2.55;;;;;;;12.74;100.00;95803.22;1034023;28;20780;-71
2022/08/13 02:12:46;;;;;;;3.72;2.60;;;;;;;12.74;100.00;95808.47;1030205;28;20049;-72
2022/08/13 02:13:18;;;;;;;6.10;2.80;;;;;;;12.73;100.00;95798.22;1027612;28;20054;-72
2022/08/13 02:13:52;;;;;;;5.13;2.45;;;;;;;12.74;100.00;95805.84;1021489;28;20023;-72
2022/08/13 02:14:28;;;;;;;4.55;2.75;;;;;;;12.72;100.00;95799.28;1021827;29;20041;-73
2022/08/13 02:14:58;;;;;;;12.75;2.88;;;;;;;12.71;100.00;95800.34;1024198;28;20034;-74
2022/08/13 02:15:29;;;;;;;9.73;3.72;;;;;;;12.61;100.00;95789.84;1018262;29;20114;-73
2022/08/13 02:15:59;;;;;;;7.75;2.67;;;;;;;12.67;100.00;95799.28;1014694;29;20834;-73
2022/08/13 02:16:31;;;;;;;8.40;3.25;;;;;;;12.67;100.00;95799.28;1018663;29;20063;-72
2022/08/13 02:17:24;;;;;;;6.72;2.80;;;;;;;12.62;100.00;95786.19;1022221;28;20424;-72
2022/08/13 02:17:55;;;;;;;3.33;2.90;;;;;;;12.67;100.00;95801.94;1025464;28;20161;-73
2022/08/13 02:18:26;;;;;;;2.67;2.42;;;;;;;12.65;100.00;95790.91;1025926;28;20562;-73
2022/08/13 02:18:56;;;;;;;3.22;2.40;;;;;;;12.67;100.00;95796.66;1021911;28;20038;-73
2022/08/13 02:19:27;;;;;;;3.00;2.78;;;;;;;12.67;100.00;95794.03;1022455;29;20063;-73
2022/08/13 02:19:58;;;;;;;21.35;3.70;;;;;;;12.68;100.00;95795.63;1025672;28;20030;-72
2022/08/13 02:20:28;;;;;;;4.63;3.22;;;;;;;12.64;100.00;95787.50;1026070;28;20034;-72
2022/08/13 02:21:01;;;;;;;6.57;2.65;;;;;;;12.60;100.00;95778.53;1021920;28;20401;-71
2022/08/13 02:21:32;;;;;;;5.05;2.78;;;;;;;12.67;100.00;95788.75;1016309;29;20533;-73
2022/08/13 02:22:04;;;;;;;2.95;2.30;;;;;;;12.66;100.00;95789.84;1018317;29;20020;-72
2022/08/13 02:22:36;;;;;;;2.72;2.53;;;;;;;12.64;100.00;95795.38;1015075;29;20040;-72
2022/08/13 02:23:06;;;;;;;7.63;2.45;;;;;;;12.64;100.00;95795.38;1025508;28;20031;-73
2022/08/13 02:23:37;;;;;;;4.03;2.60;;;;;;;12.65;100.00;95790.91;1034322;28;20125;-73
2022/08/13 02:24:13;;;;;;;3.92;2.17;;;;;;;12.58;100.00;95793.84;1033956;28;20028;-73
2022/08/13 02:24:54;;;;;;;7.38;2.95;;;;;;;12.62;100.00;95792.22;1030350;28;20018;-73
2022/08/13 02:25:25;;;;;;;3.15;2.28;;;;;;;12.61;100.00;95801.19;1029967;28;20447;-72
2022/08/13 02:25:55;;;;;;;2.83;2.40;;;;;;;12.61;100.00;95803.03;1023905;28;20007;-74
2022/08/13 02:26:27;;;;;;;4.15;2.30;;;;;;;12.55;100.00;95790.97;1023646;28;20027;-73
2022/08/13 02:26:57;;;;;;;4.15;2.50;;;;;;;12.60;100.00;95802.25;1018357;29;20489;-74
2022/08/13 02:27:28;;;;;;;2.45;2.25;;;;;;;12.59;100.00;95799.88;1018499;29;20111;-73
2022/08/13 02:27:59;;;;;;;5.13;2.88;;;;;;;12.58;100.00;95803.59;1022037;28;20039;-72
2022/08/13 02:28:32;;;;;;;4.28;2.33;;;;;;;12.56;100.00;95795.94;1017120;28;20584;-70
2022/08/13 02:29:04;;;;;;;3.17;2.75;;;;;;;12.57;100.00;95804.63;1025224;28;20039;-70
2022/08/13 02:29:34;;;;;;;3.15;2.40;;;;;;;12.56;100.00;95803.06;1024756;28;20871;-71
2022/08/13 02:30:07;;;;;;;3.75;2.40;;;;;;;12.54;100.00;95805.97;1027373;28;20066;-71
2022/08/13 02:30:38;;;;;;;2.50;2.30;;;;;;;12.54;100.00;95800.72;1030854;28;20030;-71
2022/08/13 02:31:08;;;;;;;2.35;2.17;;;;;;;12.55;100.00;95802.28;1030015;28;20040;-71
2022/08/13 02:31:42;;;;;;;8.18;2.30;;;;;;;12.54;100.00;95798.09;1030636;28;20027;-72
2022/08/13 02:32:12;;;;;;;2.70;2.25;;;;;;;12.54;100.00;95802.53;1026457;28;20026;-72
2022/08/13 02:32:43;;;;;;;3.15;2.55;;;;;;;12.53;100.00;95801.75;1022015;28;20769;-72
2022/08/13 02:33:13;;;;;;;5.30;2.60;;;;;;;12.53;100.00;95803.59;1023610;28;20116;-71
2022/08/13 02:33:44;;;;;;;2.85;2.38;;;;;;;12.50;100.00;95792.56;1023195;28;20037;-72
2022/08/13 02:34:14;;;;;;;2.60;2.40;;;;;;;12.49;100.00;95804.16;1022811;28;20038;-72
2022/08/13 02:34:46;;;;;;;5.10;2.42;;;;;;;12.48;100.00;95802.59;1027599;28;20049;-72
2022/08/13 02:35:18;;;;;;;2.45;2.25;;;;;;;12.45;100.00;95795.22;1030691;28;20041;-71
2022/08/13 02:35:48;;;;;;;3.50;2.28;;;;;;;12.46;100.00;95802.06;1027380;28;20031;-71